createdAt,value
2022-09-07T00:01:07.256Z,1.42
2022-09-07T00:03:34.901Z,1.20
2022-09-07T00:06:06.167Z,1.13
2022-09-07T00:08:33.739Z,1.00
2022-09-07T00:11:02.266Z,1.00
2022-09-07T00:13:31.341Z,1.10
2022-09-07T00:15:58.646Z,1.10
2022-09-07T00:18:26.340Z,1.23
2022-09-07T00:21:04.001Z,1.15
2022-09-07T00:23:31.753Z,1.00
2022-09-07T00:26:02.816Z,1.33
2022-09-07T00:28:30.562Z,1.52
2022-09-07T00:30:57.895Z,1.00
2022-09-07T00:33:25.340Z,1.17
2022-09-07T00:35:52.637Z,1.35
2022-09-07T00:38:20.233Z,1.40
2022-09-07T00:40:47.462Z,1.20
2022-09-07T00:43:16.838Z,1.48
2022-09-07T00:45:44.125Z,1.35
2022-09-07T00:48:15.152Z,1.27
2022-09-07T00:50:44.921Z,1.20
2022-09-07T00:53:20.269Z,1.23
2022-09-07T00:55:49.335Z,1.35
2022-09-07T00:58:17.143Z,1.38
2022-09-07T01:00:46.272Z,1.13
2022-09-07T01:03:14.035Z,1.30
2022-09-07T01:05:50.362Z,1.55
2022-09-07T01:08:17.903Z,1.50
2022-09-07T01:10:46.784Z,1.75
2022-09-07T01:13:15.164Z,1.33
2022-09-07T01:16:03.331Z,1.27
2022-09-07T01:18:49.458Z,1.38
2022-09-07T01:21:21.625Z,2.08
2022-09-07T01:23:48.883Z,1.92
2022-09-07T01:26:30.901Z,1.35
2022-09-07T01:29:03.865Z,1.20
2022-09-07T01:31:34.147Z,1.50
2022-09-07T01:34:12.279Z,1.55
2022-09-07T01:36:39.528Z,1.65
2022-09-07T01:39:06.918Z,1.80
2022-09-07T01:41:37.274Z,1.42
2022-09-07T01:44:12.861Z,1.70
2022-09-07T01:46:52.127Z,1.90
2022-09-07T01:49:22.295Z,1.15
2022-09-07T01:51:52.467Z,1.73
2022-09-07T01:54:26.187Z,1.88
2022-09-07T01:56:55.970Z,1.33
2022-09-07T01:59:42.052Z,1.88
2022-09-07T02:02:17.522Z,1.45
2022-09-07T02:04:51.001Z,2.03
2022-09-07T02:07:18.228Z,1.10
2022-09-07T02:09:51.425Z,1.85
2022-09-07T02:12:30.998Z,1.60
2022-09-07T02:15:01.144Z,1.70
2022-09-07T02:17:33.953Z,1.70
2022-09-07T02:20:12.610Z,1.65
2022-09-07T02:22:42.258Z,1.30
2022-09-07T02:25:10.856Z,2.17
2022-09-07T02:27:43.733Z,1.42
2022-09-07T02:30:11.273Z,1.65
2022-09-07T02:32:38.644Z,1.98
2022-09-07T02:35:07.323Z,2.30
2022-09-07T02:37:35.013Z,1.45
2022-09-07T02:40:02.485Z,2.13
2022-09-07T02:42:32.417Z,2.60
2022-09-07T02:44:59.926Z,1.70
2022-09-07T02:47:27.183Z,1.33
2022-09-07T02:49:54.402Z,2.03
2022-09-07T02:52:24.398Z,1.73
2022-09-07T02:55:01.005Z,2.17
2022-09-07T02:57:47.180Z,1.75
2022-09-07T03:00:18.024Z,1.80
2022-09-07T03:02:45.666Z,1.70
2022-09-07T03:05:22.212Z,1.65
2022-09-07T03:08:01.509Z,1.88
2022-09-07T03:10:29.867Z,1.65
2022-09-07T03:12:57.150Z,2.67
2022-09-07T03:15:26.262Z,1.83
2022-09-07T03:17:53.583Z,2.10
2022-09-07T03:20:21.641Z,2.65
2022-09-07T03:22:49.510Z,1.30
2022-09-07T03:25:16.905Z,2.15
2022-09-07T03:27:44.367Z,2.22
2022-09-07T03:30:12.104Z,2.00
2022-09-07T03:32:39.698Z,1.77
2022-09-07T03:35:07.930Z,1.80
2022-09-07T03:37:38.455Z,2.45
2022-09-07T03:40:07.411Z,1.70
2022-09-07T03:42:34.768Z,2.42
2022-09-07T03:45:02.085Z,2.33
2022-09-07T03:47:29.297Z,2.35
2022-09-07T03:49:56.502Z,1.35
2022-09-07T03:52:24.355Z,2.20
2022-09-07T03:54:51.676Z,1.92
2022-09-07T03:57:20.285Z,2.50
2022-09-07T03:59:48.024Z,2.03
2022-09-07T04:02:15.397Z,2.42
2022-09-07T04:04:43.357Z,2.15
2022-09-07T04:07:10.783Z,2.25
2022-09-07T04:09:38.045Z,2.03
2022-09-07T04:12:05.467Z,1.52
2022-09-07T04:14:32.883Z,1.45
2022-09-07T04:17:00.186Z,1.20
2022-09-07T04:19:27.477Z,0.90
2022-09-07T04:21:54.686Z,1.42
2022-09-07T04:24:21.984Z,1.17
2022-09-07T04:26:49.391Z,2.40
2022-09-07T04:29:16.667Z,1.55
2022-09-07T04:31:43.922Z,1.40
2022-09-07T04:34:11.178Z,1.17
2022-09-07T04:36:38.429Z,1.73
2022-09-07T04:39:06.195Z,1.00
2022-09-07T04:41:34.863Z,0.68
2022-09-07T04:44:03.132Z,0.73
2022-09-07T04:46:33.571Z,0.73
2022-09-07T04:49:01.833Z,0.93
2022-09-07T04:51:30.542Z,0.85
2022-09-07T04:53:58.457Z,1.23
2022-09-07T04:56:25.701Z,0.70
2022-09-07T04:58:53.065Z,0.88
2022-09-07T05:01:21.518Z,0.70
2022-09-07T05:03:49.194Z,0.70
2022-09-07T05:06:17.714Z,0.85
2022-09-07T05:08:46.425Z,0.95
2022-09-07T05:11:14.286Z,1.48
2022-09-07T05:13:41.669Z,1.02
2022-09-07T05:16:13.747Z,0.93
2022-09-07T05:18:41.167Z,1.02
2022-09-07T05:21:16.190Z,1.15
2022-09-07T05:23:43.825Z,1.23
2022-09-07T05:26:12.251Z,1.38
2022-09-07T05:28:39.762Z,1.30
2022-09-07T05:36:38.652Z,1.45
2022-09-07T05:39:06.324Z,1.70
2022-09-07T05:41:33.814Z,1.67
2022-09-07T05:46:48.362Z,2.35
2022-09-07T05:49:15.623Z,2.35
2022-09-07T05:51:42.976Z,1.63
2022-09-07T05:54:11.956Z,2.05
2022-09-07T05:56:39.226Z,2.67
2022-09-07T05:59:06.536Z,2.55
2022-09-07T06:01:35.572Z,2.25
2022-09-07T06:04:02.944Z,2.70
2022-09-07T06:06:30.288Z,2.20
2022-09-07T06:08:57.783Z,3.22
2022-09-07T06:11:27.264Z,2.70
2022-09-07T06:13:55.830Z,2.25
2022-09-07T06:16:23.118Z,2.42
2022-09-07T06:18:50.893Z,2.03
2022-09-07T06:21:19.504Z,2.65
2022-09-07T06:23:47.426Z,1.48
2022-09-07T06:26:15.279Z,1.50
2022-09-07T06:28:45.248Z,1.90
2022-09-07T06:31:15.421Z,1.90
2022-09-07T06:33:44.652Z,1.55
2022-09-07T06:36:16.024Z,1.73
2022-09-07T06:38:43.805Z,1.40
2022-09-07T06:44:01.357Z,1.65
2022-09-07T06:49:15.878Z,2.95
2022-09-07T06:51:43.300Z,1.73
2022-09-07T06:56:57.797Z,1.60
2022-09-07T06:59:25.056Z,1.52
2022-09-07T07:01:52.318Z,1.70
2022-09-07T07:04:19.618Z,1.40
2022-09-07T07:06:46.957Z,1.27
2022-09-07T07:09:14.245Z,1.77
2022-09-07T07:11:43.546Z,1.50
2022-09-07T07:14:17.955Z,1.38
2022-09-07T07:16:45.583Z,1.50
2022-09-07T07:19:12.961Z,1.73
2022-09-07T07:22:03.432Z,2.13
2022-09-07T07:24:27.471Z,1.30
2022-09-07T07:26:54.831Z,1.52
2022-09-07T07:29:24.011Z,1.85
2022-09-07T07:31:53.591Z,1.63
2022-09-07T07:34:21.106Z,1.73
2022-09-07T07:36:48.374Z,1.70
2022-09-07T07:42:05.056Z,1.52
2022-09-07T07:44:32.918Z,1.52
2022-09-07T07:47:00.219Z,1.98
2022-09-07T07:49:27.535Z,1.52
2022-09-07T07:54:43.229Z,2.20
2022-09-07T07:57:10.584Z,1.67
2022-09-07T07:59:37.808Z,1.88
2022-09-07T08:02:06.049Z,1.60
2022-09-07T08:04:36.856Z,1.80
2022-09-07T08:07:09.590Z,1.23
2022-09-07T08:09:37.961Z,2.28
2022-09-07T08:12:05.237Z,1.38
2022-09-07T08:14:32.625Z,2.13
2022-09-07T08:16:59.937Z,2.17
2022-09-07T08:19:27.185Z,1.75
2022-09-07T08:21:54.433Z,1.40
2022-09-07T08:24:21.651Z,2.15
2022-09-07T08:26:48.839Z,1.58
2022-09-07T08:29:16.050Z,1.85
2022-09-07T08:31:44.308Z,1.98
2022-09-07T08:34:11.848Z,1.92
2022-09-07T08:36:39.084Z,2.35
2022-09-07T08:39:06.296Z,1.30
2022-09-07T08:41:47.286Z,1.85
2022-09-07T08:44:17.332Z,1.27
2022-09-07T08:46:50.226Z,2.03
2022-09-07T08:49:20.847Z,1.30
2022-09-07T08:51:50.855Z,1.60
2022-09-07T08:54:18.873Z,1.60
2022-09-07T08:59:43.018Z,1.35
2022-09-07T09:02:35.115Z,1.50
2022-09-07T09:05:20.110Z,1.90
2022-09-07T09:07:56.276Z,2.03
2022-09-07T09:10:33.439Z,1.65
2022-09-07T09:13:20.820Z,1.65
2022-09-07T09:15:54.238Z,1.98
2022-09-07T09:18:27.353Z,1.40
2022-09-07T09:20:55.719Z,2.22
2022-09-07T09:23:26.938Z,1.67
2022-09-07T09:25:58.136Z,1.98
2022-09-07T09:28:27.640Z,1.50
2022-09-07T09:30:57.633Z,1.42
2022-09-07T09:33:26.632Z,1.35
2022-09-07T09:35:55.009Z,1.60
2022-09-07T09:38:34.424Z,1.50
2022-09-07T09:41:06.070Z,1.15
2022-09-07T09:43:39.438Z,1.48
2022-09-07T09:46:17.019Z,1.70
2022-09-07T09:48:44.323Z,1.15
2022-09-07T09:54:07.862Z,1.80
2022-09-07T09:56:38.745Z,2.50
2022-09-07T10:05:20.600Z,1.35
2022-09-07T10:07:52.980Z,1.55
2022-09-07T10:10:20.317Z,1.48
2022-09-07T10:12:47.580Z,1.70
2022-09-07T10:15:26.352Z,1.45
2022-09-07T10:17:53.766Z,1.60
2022-09-07T10:20:23.757Z,2.85
2022-09-07T10:22:54.061Z,1.80
2022-09-07T10:25:36.646Z,1.48
2022-09-07T10:28:03.914Z,1.65
2022-09-07T10:30:36.905Z,1.40
2022-09-07T10:33:09.152Z,1.20
2022-09-07T10:35:42.900Z,1.20
2022-09-07T10:38:16.517Z,1.50
2022-09-07T10:40:44.144Z,1.70
2022-09-07T10:43:26.551Z,1.85
2022-09-07T10:46:05.835Z,1.85
2022-09-07T10:48:35.478Z,1.80
2022-09-07T10:51:12.700Z,1.77
2022-09-07T10:53:42.456Z,1.27
2022-09-07T10:56:15.524Z,1.13
2022-09-07T11:01:35.893Z,1.60
2022-09-07T11:04:22.428Z,1.25
2022-09-07T11:06:51.162Z,1.27
2022-09-07T11:09:29.361Z,1.70
2022-09-07T11:12:04.298Z,1.20
2022-09-07T11:14:58.249Z,1.50
2022-09-07T11:17:27.314Z,1.70
2022-09-07T11:19:58.053Z,1.20
2022-09-07T11:22:25.276Z,1.80
2022-09-07T11:28:22.473Z,1.65
2022-09-07T11:30:56.669Z,1.33
2022-09-07T11:33:41.423Z,1.25
2022-09-07T11:36:16.621Z,1.27
2022-09-07T11:39:11.742Z,1.90
2022-09-07T11:41:41.565Z,1.30
2022-09-07T11:44:27.182Z,1.80
2022-09-07T11:46:55.777Z,1.77
2022-09-07T11:49:24.724Z,1.20
2022-09-07T11:51:54.519Z,1.67
2022-09-07T11:54:39.959Z,1.30
2022-09-07T11:57:21.121Z,1.05
2022-09-07T12:00:08.428Z,1.45
2022-09-07T12:02:57.555Z,1.45
2022-09-07T12:05:25.747Z,1.13
2022-09-07T12:08:11.658Z,1.00
2022-09-07T12:10:47.089Z,1.48
2022-09-07T12:13:32.902Z,1.05
2022-09-07T12:16:14.522Z,1.50
2022-09-07T12:18:51.260Z,1.50
2022-09-07T12:21:36.803Z,1.50
2022-09-07T12:24:04.184Z,1.30
2022-09-07T12:26:37.005Z,1.00
2022-09-07T12:29:05.473Z,1.50
2022-09-07T12:31:58.780Z,1.83
2022-09-07T12:34:32.773Z,1.20
2022-09-07T12:37:02.811Z,1.20
2022-09-07T12:39:30.394Z,1.52
2022-09-07T12:45:12.972Z,1.40
2022-09-07T12:47:41.107Z,1.63
2022-09-07T12:50:28.410Z,1.10
2022-09-07T12:53:20.765Z,1.20
2022-09-07T12:56:16.405Z,1.27
2022-09-07T12:59:02.879Z,1.20
2022-09-07T13:01:36.097Z,1.30
2022-09-07T13:04:29.404Z,1.25
2022-09-07T13:07:13.265Z,1.25
2022-09-07T13:09:41.518Z,1.00
2022-09-07T13:15:52.753Z,1.00
2022-09-07T13:18:29.205Z,1.23
2022-09-07T13:21:19.581Z,1.40
2022-09-07T13:26:59.123Z,1.08
2022-09-07T13:29:37.504Z,0.80
2022-09-07T13:32:07.979Z,1.25
2022-09-07T13:34:35.245Z,1.20
2022-09-07T13:37:03.915Z,0.98
2022-09-07T13:39:33.750Z,1.48
2022-09-07T13:42:01.570Z,0.98
2022-09-07T13:44:31.884Z,1.38
2022-09-07T13:47:18.237Z,1.38
2022-09-07T13:49:56.376Z,1.67
2022-09-07T13:52:26.408Z,1.15
2022-09-07T13:55:12.283Z,1.20
2022-09-07T13:57:45.480Z,1.17
2022-09-07T14:00:14.336Z,1.02
2022-09-07T14:02:42.031Z,1.02
2022-09-07T14:05:10.392Z,1.15
2022-09-07T14:07:38.206Z,1.05
2022-09-07T14:10:14.740Z,1.10
2022-09-07T14:12:47.010Z,0.93
2022-09-07T14:15:43.455Z,1.23
2022-09-07T14:18:18.929Z,1.40
2022-09-07T14:20:50.477Z,1.27
2022-09-07T14:23:21.720Z,1.52
2022-09-07T14:28:38.298Z,1.10
2022-09-07T14:31:06.048Z,1.02
2022-09-07T14:33:33.662Z,1.13
2022-09-07T14:36:09.336Z,1.60
2022-09-07T14:41:34.759Z,0.98
2022-09-07T14:44:02.137Z,1.30
2022-09-07T14:46:36.284Z,1.15
2022-09-07T14:49:14.449Z,0.90
2022-09-07T14:51:44.085Z,1.02
2022-09-07T14:54:23.473Z,1.08
2022-09-07T14:57:02.692Z,0.70
2022-09-07T14:59:32.673Z,0.73
2022-09-07T15:02:19.158Z,1.17
2022-09-07T15:05:09.950Z,1.00
2022-09-07T15:07:41.277Z,1.23
2022-09-07T15:10:15.856Z,0.90
2022-09-07T15:12:44.203Z,0.80
2022-09-07T15:15:12.652Z,1.08
2022-09-07T15:17:43.504Z,1.10
2022-09-07T15:20:30.194Z,0.95
2022-09-07T15:22:57.679Z,1.20
2022-09-07T15:25:24.942Z,1.17
2022-09-07T15:27:52.233Z,1.10
2022-09-07T15:30:19.452Z,1.00
2022-09-07T15:32:46.741Z,1.05
2022-09-07T15:35:14.682Z,1.10
2022-09-07T15:40:47.498Z,1.00
2022-09-07T15:43:26.760Z,0.93
2022-09-07T15:45:55.532Z,0.73
2022-09-07T15:48:25.311Z,1.00
2022-09-07T15:50:53.990Z,0.73
2022-09-07T15:56:08.694Z,0.90
2022-09-07T15:58:35.940Z,0.77
2022-09-07T16:03:51.941Z,1.00
2022-09-07T16:06:21.832Z,1.33
2022-09-07T16:08:51.394Z,0.80
2022-09-07T16:11:25.715Z,0.80
2022-09-07T16:13:57.362Z,0.90
2022-09-07T16:17:25.741Z,0.70
2022-09-07T16:19:20.054Z,1.00
2022-09-07T16:21:47.551Z,0.90
2022-09-07T16:24:14.933Z,0.80
2022-09-07T16:26:42.199Z,0.90
2022-09-07T16:29:09.458Z,1.42
2022-09-07T16:31:37.142Z,0.80
2022-09-07T16:34:04.895Z,1.00
2022-09-07T16:36:32.138Z,1.02
2022-09-07T16:39:00.874Z,0.93
2022-09-07T16:41:30.978Z,1.23
2022-09-07T16:43:58.549Z,1.17
2022-09-07T16:46:27.249Z,1.20
2022-09-07T16:48:54.536Z,0.80
2022-09-07T16:51:22.754Z,0.93
2022-09-07T16:53:54.450Z,1.02
2022-09-07T16:56:23.241Z,0.90
2022-09-07T16:58:52.097Z,1.15
2022-09-07T17:01:21.127Z,0.70
2022-09-07T17:03:51.917Z,1.05
2022-09-07T17:06:20.498Z,1.15
2022-09-07T17:08:47.967Z,1.13
2022-09-07T17:11:16.553Z,0.90
2022-09-07T17:13:44.512Z,1.45
2022-09-07T17:16:11.815Z,0.90
2022-09-07T17:21:29.592Z,0.93
2022-09-07T17:23:56.865Z,1.02
2022-09-07T17:26:26.877Z,1.05
2022-09-07T17:28:55.363Z,0.82
2022-09-07T17:34:13.316Z,1.73
2022-09-07T17:36:40.913Z,1.10
2022-09-07T17:39:17.135Z,1.40
2022-09-07T17:41:45.556Z,1.27
2022-09-07T17:44:12.815Z,1.45
2022-09-07T17:46:40.101Z,1.40
2022-09-07T17:49:08.712Z,1.30
2022-09-07T17:51:36.485Z,1.40
2022-09-07T17:54:09.655Z,1.30
2022-09-07T17:56:37.460Z,1.42
2022-09-07T18:01:54.193Z,1.80
2022-09-07T18:04:22.102Z,1.52
2022-09-07T18:06:49.588Z,1.60
2022-09-07T18:09:16.872Z,1.15
2022-09-07T18:11:47.069Z,1.13
2022-09-07T18:14:15.418Z,1.27
2022-09-07T18:16:44.058Z,1.60
2022-09-07T18:19:12.544Z,1.00
2022-09-07T18:21:41.861Z,1.50
2022-09-07T18:24:13.652Z,1.80
2022-09-07T18:26:41.612Z,1.15
2022-09-07T18:29:27.216Z,1.55
2022-09-07T18:31:55.873Z,1.55
2022-09-07T18:34:23.593Z,1.70
2022-09-07T18:36:50.957Z,1.38
2022-09-07T18:39:18.733Z,1.38
2022-09-07T18:41:45.990Z,1.23
2022-09-07T18:47:00.695Z,1.02
2022-09-07T18:49:27.899Z,1.25
2022-09-07T18:54:42.617Z,1.58
2022-09-07T18:57:09.925Z,1.35
2022-09-07T18:59:37.141Z,1.30
2022-09-07T19:02:07.923Z,1.52
2022-09-07T19:07:26.195Z,0.95
2022-09-07T19:09:56.898Z,1.15
2022-09-07T19:12:24.293Z,1.05
2022-09-07T19:14:51.841Z,1.15
2022-09-07T19:17:19.161Z,1.25
2022-09-07T19:19:46.493Z,1.23
2022-09-07T19:22:13.668Z,1.33
2022-09-07T19:24:40.942Z,1.17
2022-09-07T19:27:08.358Z,2.25
2022-09-07T19:29:35.599Z,1.10
2022-09-07T19:32:07.538Z,1.70
2022-09-07T19:34:38.702Z,1.17
2022-09-07T19:37:06.617Z,2.00
2022-09-07T19:39:33.947Z,1.92
2022-09-07T19:42:01.568Z,3.00
2022-09-07T19:44:28.787Z,1.83
2022-09-07T19:46:56.118Z,2.85
2022-09-07T19:49:23.534Z,1.33
2022-09-07T19:51:51.948Z,1.77
2022-09-07T19:54:19.373Z,1.10
2022-09-07T19:56:46.652Z,1.50
2022-09-07T19:59:14.425Z,0.52
2022-09-07T20:01:46.195Z,0.47
2022-09-07T20:04:19.539Z,0.40
2022-09-07T20:06:49.735Z,0.70
2022-09-07T20:09:18.052Z,0.70
2022-09-07T20:11:47.336Z,0.77
2022-09-07T20:14:15.673Z,1.50
2022-09-07T20:16:42.987Z,0.70
2022-09-07T20:19:12.228Z,0.80
2022-09-07T20:21:39.537Z,1.20
2022-09-07T20:24:06.878Z,0.98
2022-09-07T20:26:34.129Z,0.52
2022-09-07T20:29:23.839Z,0.57
2022-09-07T20:31:48.689Z,0.45
2022-09-07T20:34:15.977Z,0.60
2022-09-07T20:36:43.253Z,0.63
2022-09-07T20:39:14.329Z,0.55
2022-09-07T20:41:41.594Z,0.60
2022-09-07T20:44:09.481Z,0.65
2022-09-07T20:46:37.071Z,0.47
2022-09-07T20:49:05.245Z,0.65
2022-09-07T20:51:32.630Z,0.75
2022-09-07T20:54:00.019Z,0.70
2022-09-07T20:56:28.311Z,0.45
2022-09-07T20:59:02.829Z,0.60
2022-09-07T21:01:31.110Z,0.60
2022-09-07T21:03:59.336Z,0.85
2022-09-07T21:06:27.035Z,0.35
2022-09-07T21:08:56.028Z,0.40
2022-09-07T21:11:24.843Z,0.40
2022-09-07T21:13:56.580Z,0.65
2022-09-07T21:16:23.921Z,0.50
2022-09-07T21:18:55.369Z,0.55
2022-09-07T21:21:23.256Z,0.40
2022-09-07T21:23:54.980Z,0.50
2022-09-07T21:26:22.338Z,0.32
2022-09-07T21:28:54.665Z,0.40
2022-09-07T21:31:21.893Z,0.47
2022-09-07T21:33:49.295Z,0.60
2022-09-07T21:36:16.562Z,0.40
2022-09-07T21:38:43.756Z,0.45
2022-09-07T21:41:12.997Z,0.47
2022-09-07T21:43:40.873Z,0.50
2022-09-07T21:46:16.427Z,0.90
2022-09-07T21:48:44.931Z,0.45
2022-09-07T21:51:12.574Z,0.88
2022-09-07T21:53:40.082Z,0.90
2022-09-07T21:56:08.681Z,0.50
2022-09-07T21:58:35.925Z,0.50
2022-09-07T22:01:11.699Z,0.50
2022-09-07T22:03:40.333Z,0.60
2022-09-07T22:06:08.133Z,0.60
2022-09-07T22:08:36.181Z,0.55
2022-09-07T22:11:05.361Z,0.52
2022-09-07T22:13:32.731Z,0.43
2022-09-07T22:16:00.146Z,0.57
2022-09-07T22:18:29.925Z,0.57
2022-09-07T22:21:05.257Z,1.23
2022-09-07T22:23:33.611Z,1.17
2022-09-07T22:26:00.891Z,1.17
2022-09-07T22:28:29.782Z,1.10
2022-09-07T22:30:57.857Z,1.10
2022-09-07T22:33:25.264Z,0.73
2022-09-07T22:35:52.475Z,1.20
2022-09-07T22:38:19.678Z,0.73
2022-09-07T22:40:47.238Z,0.98
2022-09-07T22:43:14.605Z,0.80
2022-09-07T22:45:41.821Z,1.45
2022-09-07T22:48:09.065Z,1.00
2022-09-07T22:50:36.300Z,1.33
2022-09-07T22:53:03.513Z,1.10
2022-09-07T22:55:31.476Z,1.20
2022-09-07T22:57:58.725Z,1.02
2022-09-07T23:00:25.923Z,0.70
2022-09-07T23:02:53.744Z,1.45
2022-09-07T23:05:20.973Z,1.02
2022-09-07T23:07:49.021Z,0.65
2022-09-07T23:10:16.370Z,1.30
2022-09-07T23:12:44.362Z,0.50
2022-09-07T23:15:12.343Z,0.40
2022-09-07T23:17:39.536Z,0.50
2022-09-07T23:20:07.137Z,0.47
2022-09-07T23:22:34.584Z,0.30
2022-09-07T23:25:01.826Z,0.50
2022-09-07T23:27:29.080Z,0.50
2022-09-07T23:29:56.324Z,0.50
2022-09-07T23:32:23.595Z,0.55
2022-09-07T23:34:50.820Z,0.60
2022-09-07T23:37:18.016Z,0.50
2022-09-07T23:39:45.237Z,1.08
2022-09-07T23:42:12.574Z,0.55
2022-09-07T23:44:39.816Z,0.80
2022-09-07T23:47:07.038Z,0.60
2022-09-07T23:49:34.224Z,0.50
2022-09-07T23:52:01.488Z,0.60
2022-09-07T23:54:28.685Z,1.02
2022-09-07T23:56:55.880Z,0.60
2022-09-07T23:59:23.157Z,0.73
